Time;durP1;ratioP1;P1;durP2;ratioP2;P2;SDS_P1;SDS_P2;PMS_P1;PMS_P2;Temp;Humidity;BMP_temperature;BMP_pressure;BME280_temperature;BME280_humidity;BME280_pressure;Samples;Min_cycle;Max_cycle;Signal;HPM_P1;HPM_P2
2021/03/18 00:01:26;;;;;;;15.38;11.48;;;;;;;4.55;80.37;100802.49;2773387;85;21184;-67
2021/03/18 00:05:31;;;;;;;21.23;16.02;;;;;;;4.59;80.41;100798.78;2773087;85;21161;-67
2021/03/18 00:09:35;;;;;;;20.15;13.30;;;;;;;4.69;80.08;100802.66;2773388;85;21559;-67
2021/03/18 00:13:40;;;;;;;16.87;11.20;;;;;;;4.79;79.66;100803.53;2773456;85;21196;-66
2021/03/18 00:17:43;;;;;;;15.65;10.70;;;;;;;4.84;79.29;100805.47;2773271;85;21547;-66
2021/03/18 00:21:47;;;;;;;17.73;12.50;;;;;;;4.98;79.14;100802.14;2773593;85;21142;-66
2021/03/18 00:25:50;;;;;;;19.70;13.72;;;;;;;4.96;78.05;100807.51;2773465;85;21171;-66
2021/03/18 00:29:55;;;;;;;23.80;12.60;;;;;;;4.83;78.06;100803.31;2773693;85;21157;-66
2021/03/18 00:34:00;;;;;;;14.75;10.45;;;;;;;4.73;78.38;100807.32;2773705;85;21165;-65
2021/03/18 00:38:04;;;;;;;21.07;12.65;;;;;;;4.66;78.43;100804.61;2777725;85;21737;-67
2021/03/18 00:42:07;;;;;;;22.87;16.82;;;;;;;4.57;78.56;100805.91;2767580;86;21142;-66
2021/03/18 00:46:10;;;;;;;68.40;43.25;;;;;;;4.50;78.66;100799.20;2767686;86;21122;-66
2021/03/18 00:50:21;;;;;;;65.65;40.40;;;;;;;4.51;78.94;100801.78;2795214;83;21109;-66
2021/03/18 00:54:24;;;;;;;33.00;20.40;;;;;;;4.49;78.82;100797.50;2767585;86;21193;-66
2021/03/18 00:58:27;;;;;;;32.20;22.35;;;;;;;4.39;78.59;100800.59;2767457;86;21573;-66
2021/03/18 01:02:31;;;;;;;26.42;16.27;;;;;;;4.27;78.85;100798.08;2791197;85;21216;-66
2021/03/18 01:06:37;;;;;;;19.37;13.68;;;;;;;4.26;78.99;100785.84;2764599;86;21186;-67
2021/03/18 01:10:46;;;;;;;18.30;12.43;;;;;;;4.34;78.76;100784.16;2791095;84;22214;-65
2021/03/18 01:14:48;;;;;;;20.62;13.05;;;;;;;4.39;78.28;100786.10;2790943;84;21173;-67
2021/03/18 01:19:06;;;;;;;19.20;11.90;;;;;;;4.35;77.67;100780.59;2791040;84;21181;-66
2021/03/18 01:23:09;;;;;;;19.57;11.30;;;;;;;4.26;77.37;100779.70;2791215;84;21165;-66
2021/03/18 01:27:13;;;;;;;18.90;10.85;;;;;;;4.13;77.45;100782.06;2791009;84;21180;-66
2021/03/18 01:31:16;;;;;;;18.90;11.70;;;;;;;3.97;77.88;100783.25;2790803;85;21185;-66
2021/03/18 01:35:22;;;;;;;18.52;13.65;;;;;;;3.70;78.01;100783.13;2791125;85;21172;-66
2021/03/18 01:39:25;;;;;;;24.77;13.15;;;;;;;3.54;79.36;100786.05;2787011;84;21169;-65
2021/03/18 01:43:28;;;;;;;22.95;13.22;;;;;;;3.46;79.90;100791.64;2787564;85;21161;-65
2021/03/18 01:47:33;;;;;;;15.58;11.78;;;;;;;3.31;79.75;100786.60;2778979;85;21176;-65
2021/03/18 01:51:38;;;;;;;15.23;11.08;;;;;;;3.12;80.42;100778.19;2730363;87;21684;-64
2021/03/18 01:55:44;;;;;;;25.70;11.48;;;;;;;2.98;81.16;100773.97;2765066;86;21552;-65
2021/03/18 01:59:49;;;;;;;18.70;15.03;;;;;;;2.88;81.42;100774.82;2778447;85;21157;-65
2021/03/18 02:03:51;;;;;;;18.98;9.90;;;;;;;2.79;82.11;100776.53;2765148;86;21153;-64
2021/03/18 02:07:56;;;;;;;15.88;7.92;;;;;;;2.73;82.42;100780.70;2778375;85;21606;-65
2021/03/18 02:12:00;;;;;;;15.93;10.10;;;;;;;2.65;82.74;100778.39;2778171;85;21152;-64
2021/03/18 02:16:12;;;;;;;19.90;11.05;;;;;;;2.57;83.37;100777.41;2778227;85;21156;-64
2021/03/18 02:21:11;;;;;;;20.68;10.75;;;;;;;2.57;83.82;100785.30;2778645;85;21180;-63
2021/03/18 02:25:24;;;;;;;25.62;12.33;;;;;;;2.57;84.00;100793.17;2778405;85;21582;-65
2021/03/18 02:30:22;;;;;;;29.10;11.97;;;;;;;2.51;83.41;100789.02;2777271;85;21161;-64
2021/03/18 02:35:07;;;;;;;28.90;13.53;;;;;;;2.40;83.98;100788.13;2778191;85;21179;-64
2021/03/18 02:39:16;;;;;;;18.30;12.90;;;;;;;2.36;84.22;100790.49;2776476;85;21728;-64
2021/03/18 02:43:22;;;;;;;24.32;14.83;;;;;;;2.35;84.44;100797.94;2773944;85;21176;-64
2021/03/18 02:47:28;;;;;;;23.73;14.68;;;;;;;2.31;84.73;100785.86;2774106;85;21189;-63
2021/03/18 02:51:36;;;;;;;16.48;10.85;;;;;;;2.38;85.08;100780.78;2773997;84;21773;-64
2021/03/18 02:59:57;;;;;;;30.45;14.53;;;;;;;2.45;85.09;100784.47;2996727;77;22894;-63
2021/03/18 03:04:02;;;;;;;21.77;12.90;;;;;;;2.35;85.10;100795.31;2951315;80;21121;-63
2021/03/18 03:08:07;;;;;;;22.20;13.38;;;;;;;2.33;85.61;100794.52;2950986;80;21109;-63
2021/03/18 03:12:12;;;;;;;23.62;13.55;;;;;;;2.33;85.94;100791.90;2951383;80;21165;-64
2021/03/18 03:16:19;;;;;;;25.37;13.08;;;;;;;2.35;85.99;100794.48;2951115;80;21169;-63
2021/03/18 03:20:23;;;;;;;17.85;12.10;;;;;;;2.43;85.86;100790.63;2951298;80;21165;-62
2021/03/18 03:24:27;;;;;;;18.45;11.80;;;;;;;2.57;85.55;100794.48;2951076;80;21596;-62
2021/03/18 03:28:32;;;;;;;29.23;14.38;;;;;;;2.55;84.54;100798.92;2951243;80;21142;-64
2021/03/18 03:32:36;;;;;;;27.83;14.40;;;;;;;2.55;84.41;100789.28;2951401;80;22197;-63
2021/03/18 03:36:40;;;;;;;22.62;12.70;;;;;;;2.43;83.64;100790.63;2951113;79;21334;-63
2021/03/18 03:40:45;;;;;;;28.55;13.48;;;;;;;2.33;83.72;100798.46;2951026;80;21141;-63
2021/03/18 03:44:48;;;;;;;34.18;14.98;;;;;;;2.21;83.86;100798.48;2951274;80;21596;-63
2021/03/18 03:48:52;;;;;;;22.90;15.20;;;;;;;2.19;84.42;100800.31;2943647;80;21141;-63
2021/03/18 03:53:12;;;;;;;29.42;16.57;;;;;;;2.13;84.27;100804.02;2899809;82;21592;-63
2021/03/18 03:57:24;;;;;;;25.72;16.77;;;;;;;2.06;84.13;100801.69;2899458;81;21164;-62
2021/03/18 04:01:55;;;;;;;21.68;16.37;;;;;;;1.95;84.43;100797.72;2870939;82;21132;-63
2021/03/18 04:06:01;;;;;;;24.23;17.35;;;;;;;1.98;84.99;100794.14;2854096;83;21156;-64
2021/03/18 04:10:06;;;;;;;26.65;16.87;;;;;;;1.98;84.97;100793.66;2854056;82;21717;-64
2021/03/18 04:14:12;;;;;;;27.62;16.35;;;;;;;2.06;85.20;100790.75;2853586;83;22191;-64
2021/03/18 04:18:16;;;;;;;28.07;16.93;;;;;;;2.18;85.24;100785.95;2853941;83;21586;-65
2021/03/18 04:22:21;;;;;;;22.37;15.40;;;;;;;2.23;84.45;100793.19;2853907;83;21590;-66
2021/03/18 04:26:25;;;;;;;27.60;17.15;;;;;;;2.20;84.40;100788.90;2853770;83;21418;-64
2021/03/18 04:30:29;;;;;;;25.88;15.53;;;;;;;2.19;84.56;100788.98;2907431;80;21162;-65
2021/03/18 04:34:33;;;;;;;33.23;17.30;;;;;;;2.14;84.09;100786.05;2946767;80;21678;-63
2021/03/18 04:38:37;;;;;;;33.65;16.50;;;;;;;2.07;84.17;100781.96;2946616;80;21172;-64
2021/03/18 04:42:41;;;;;;;38.15;18.92;;;;;;;1.97;84.18;100784.08;2946611;80;21074;-65
2021/03/18 04:46:48;;;;;;;33.13;18.92;;;;;;;1.89;84.55;100784.84;2946775;80;21173;-63
2021/03/18 04:50:51;;;;;;;43.63;20.80;;;;;;;1.85;85.16;100776.22;2946760;79;21199;-65
2021/03/18 04:54:55;;;;;;;42.10;19.48;;;;;;;1.86;85.50;100788.87;2946775;80;21157;-65
2021/03/18 04:59:01;;;;;;;34.92;19.65;;;;;;;1.79;85.58;100790.89;2946554;80;21154;-62
2021/03/18 05:03:09;;;;;;;31.50;21.10;;;;;;;1.76;86.06;100795.39;2946632;80;21142;-65
2021/03/18 05:07:15;;;;;;;42.78;24.00;;;;;;;1.71;86.48;100794.23;2946307;80;21153;-66
2021/03/18 05:11:20;;;;;;;47.20;27.22;;;;;;;1.64;86.78;100807.19;2946432;80;21161;-67
2021/03/18 05:15:25;;;;;;;37.00;20.07;;;;;;;1.54;87.41;100808.81;2947137;80;21564;-66
2021/03/18 05:19:29;;;;;;;56.65;37.53;;;;;;;1.54;87.41;100808.81;2946992;80;21574;-64
2021/03/18 05:23:33;;;;;;;71.92;38.08;;;;;;;1.52;88.11;100808.02;2946884;80;21181;-66
2021/03/18 05:27:39;;;;;;;51.53;27.42;;;;;;;1.49;88.06;100814.68;2946638;80;21157;-67
2021/03/18 05:31:43;;;;;;;89.97;43.63;;;;;;;1.49;88.43;100808.12;2946874;80;21145;-66
2021/03/18 05:35:46;;;;;;;132.72;73.17;;;;;;;1.53;88.25;100808.41;2946878;80;21158;-67
2021/03/18 05:39:50;;;;;;;91.08;51.70;;;;;;;1.56;88.13;100810.92;2946923;80;21137;-64
2021/03/18 05:43:53;;;;;;;89.55;46.42;;;;;;;1.64;88.10;100813.27;2946933;80;21125;-65
2021/03/18 05:47:58;;;;;;;85.60;46.95;;;;;;;1.64;87.70;100815.89;2946697;80;21154;-63
2021/03/18 05:52:09;;;;;;;65.35;41.98;;;;;;;1.53;87.74;100815.44;2945806;79;21158;-64
2021/03/18 05:56:17;;;;;;;86.17;42.65;;;;;;;1.51;88.29;100823.34;2946001;80;21161;-65
2021/03/18 06:00:22;;;;;;;70.87;37.93;;;;;;;1.54;88.07;100824.55;2950617;80;21124;-64
2021/03/18 06:04:25;;;;;;;109.83;52.60;;;;;;;1.60;88.23;100818.23;2951288;80;21169;-65
2021/03/18 06:08:29;;;;;;;102.70;52.05;;;;;;;1.64;88.00;100818.98;2951209;80;21588;-64
2021/03/18 06:12:36;;;;;;;72.12;37.93;;;;;;;1.62;88.35;100799.83;2951172;80;21169;-64
2021/03/18 06:16:40;;;;;;;56.80;29.27;;;;;;;1.85;88.56;100818.20;2951530;80;21161;-65
2021/03/18 06:20:49;;;;;;;38.70;28.47;;;;;;;2.00;88.22;100813.30;2950857;80;21181;-64
2021/03/18 06:24:53;;;;;;;50.95;30.20;;;;;;;2.02;87.37;100810.16;2951325;80;21177;-65
2021/03/18 06:28:58;;;;;;;48.90;29.15;;;;;;;2.08;88.03;100814.33;2950949;80;22216;-65
2021/03/18 06:33:24;;;;;;;43.52;28.38;;;;;;;2.09;87.66;100812.10;2950988;80;21149;-64
2021/03/18 06:37:35;;;;;;;52.23;30.35;;;;;;;2.18;87.92;100817.45;2950935;80;21141;-64
2021/03/18 06:41:43;;;;;;;44.20;27.10;;;;;;;2.22;87.58;100822.98;2951018;80;21563;-65
2021/03/18 06:45:46;;;;;;;48.23;28.20;;;;;;;2.16;86.87;100821.44;2951361;80;21169;-63
2021/03/18 06:50:05;;;;;;;48.55;26.87;;;;;;;2.17;87.53;100829.71;2951201;79;21669;-65
2021/03/18 06:54:22;;;;;;;51.58;30.10;;;;;;;2.24;87.58;100830.34;2951148;80;21548;-66
2021/03/18 06:58:28;;;;;;;47.75;28.55;;;;;;;2.31;87.59;100836.22;2950999;80;21192;-64
2021/03/18 07:02:31;;;;;;;39.60;27.20;;;;;;;2.43;87.87;100835.27;2951277;80;21146;-61
2021/03/18 07:06:35;;;;;;;61.00;34.45;;;;;;;2.59;87.44;100817.60;2951219;80;21156;-63
2021/03/18 07:10:38;;;;;;;48.35;28.67;;;;;;;2.67;87.21;100819.92;2951095;80;21121;-62
2021/03/18 07:14:45;;;;;;;38.73;29.55;;;;;;;2.68;86.52;100817.70;2950853;80;21141;-61
2021/03/18 07:18:57;;;;;;;44.03;30.57;;;;;;;2.67;86.81;100810.26;2951108;80;21134;-61
2021/03/18 07:23:00;;;;;;;40.98;29.18;;;;;;;2.68;86.66;100821.16;2951062;80;21193;-63
2021/03/18 07:27:12;;;;;;;48.35;32.85;;;;;;;2.70;87.11;100818.01;2924987;80;21663;-63
2021/03/18 07:31:16;;;;;;;43.25;27.60;;;;;;;2.80;86.72;100817.66;2951063;80;21169;-62
2021/03/18 07:35:22;;;;;;;46.60;27.10;;;;;;;2.85;86.78;100815.23;2950842;80;21580;-62
2021/03/18 07:39:25;;;;;;;48.83;30.25;;;;;;;2.86;86.42;100812.13;2951054;80;21121;-61
2021/03/18 07:43:30;;;;;;;50.08;33.48;;;;;;;2.74;86.25;100795.55;2950972;80;21129;-61
2021/03/18 07:47:35;;;;;;;36.03;23.27;;;;;;;2.85;86.00;100810.42;2951207;80;21165;-62
2021/03/18 07:51:42;;;;;;;;;;;;;;;2.94;85.87;100799.99;2953918;79;21149;-62
2021/03/18 07:55:48;;;;;;;35.33;24.18;;;;;;;3.06;86.24;100803.88;2925058;80;20468;-63
2021/03/18 07:59:51;;;;;;;44.55;28.70;;;;;;;3.27;86.54;100807.38;2948247;80;21604;-62
2021/03/18 08:03:56;;;;;;;44.38;29.10;;;;;;;3.35;85.24;100798.69;2946224;80;21133;-62
2021/03/18 08:07:59;;;;;;;32.93;22.35;;;;;;;3.48;85.49;100791.11;2946340;80;21560;-62
2021/03/18 08:12:02;;;;;;;36.77;23.40;;;;;;;3.57;84.65;100788.53;2946167;80;21142;-63
2021/03/18 08:16:26;;;;;;;46.13;25.08;;;;;;;3.64;84.07;100786.05;2945974;80;21537;-61
2021/03/18 08:20:50;;;;;;;37.63;27.15;;;;;;;3.79;84.81;100784.48;2946126;80;21587;-63
2021/03/18 08:24:53;;;;;;;30.35;22.82;;;;;;;4.00;84.37;100780.47;2946278;80;21169;-66
2021/03/18 08:29:00;;;;;;;34.20;19.73;;;;;;;4.31;84.07;100770.27;2946258;80;21137;-64
2021/03/18 08:33:30;;;;;;;32.90;20.92;;;;;;;4.55;83.12;100765.13;2946036;80;21158;-64
2021/03/18 08:37:43;;;;;;;32.58;20.35;;;;;;;4.81;82.81;100767.41;2946134;80;21738;-67
2021/03/18 08:41:47;;;;;;;24.37;18.32;;;;;;;4.81;81.09;100763.45;2946451;80;21149;-65
2021/03/18 08:45:50;;;;;;;31.17;18.62;;;;;;;5.06;81.45;100771.43;2946316;80;21166;-66
2021/03/18 08:49:53;;;;;;;29.42;22.27;;;;;;;5.38;81.32;100758.38;2946063;79;21174;-66
2021/03/18 08:53:56;;;;;;;34.58;21.30;;;;;;;5.70;79.71;100772.97;2946159;80;21708;-64
2021/03/18 08:58:00;;;;;;;23.05;15.23;;;;;;;5.51;77.00;100767.80;2946365;80;21137;-64
2021/03/18 09:02:08;;;;;;;32.20;21.27;;;;;;;5.39;76.56;100771.47;2950919;80;21564;-65
2021/03/18 09:06:11;;;;;;;28.95;19.35;;;;;;;5.60;79.42;100766.02;2951589;80;21145;-65
2021/03/18 09:10:23;;;;;;;29.18;19.23;;;;;;;5.92;77.92;100773.97;2921035;80;21132;-67
2021/03/18 09:14:26;;;;;;;25.57;20.32;;;;;;;6.00;75.12;100777.52;2907656;81;21614;-66
2021/03/18 09:18:33;;;;;;;29.52;18.73;;;;;;;5.80;75.21;100779.94;2907732;81;21172;-67
2021/03/18 09:22:37;;;;;;;26.05;16.57;;;;;;;5.84;75.65;100774.38;2908084;81;21155;-65
2021/03/18 09:26:42;;;;;;;37.90;23.50;;;;;;;6.06;75.39;100773.72;2912579;80;21173;-66
2021/03/18 09:30:57;;;;;;;38.98;23.95;;;;;;;5.93;73.79;100769.55;2951583;80;21636;-67
2021/03/18 09:35:00;;;;;;;25.30;19.92;;;;;;;5.92;74.97;100759.93;2951278;80;21150;-65
2021/03/18 09:39:10;;;;;;;37.05;26.45;;;;;;;6.23;75.69;100757.79;2948565;80;21145;-64
2021/03/18 09:43:23;;;;;;;34.95;22.93;;;;;;;6.42;74.49;100743.05;3064635;77;22920;-64
2021/03/18 09:47:27;;;;;;;25.95;18.73;;;;;;;6.39;71.13;100749.83;3018896;78;21110;-63
2021/03/18 09:51:37;;;;;;;37.28;24.52;;;;;;;6.28;72.27;100741.65;2976942;78;21109;-63
2021/03/18 09:55:41;;;;;;;37.80;25.97;;;;;;;6.34;72.75;100754.98;2965485;80;21435;-64
2021/03/18 09:59:51;;;;;;;36.17;25.20;;;;;;;6.43;72.37;100746.07;2965257;80;21144;-63
2021/03/18 10:04:02;;;;;;;33.48;24.05;;;;;;;6.51;73.10;100751.41;2965192;80;21503;-63
2021/03/18 10:08:05;;;;;;;28.52;19.77;;;;;;;6.39;71.79;100746.36;2965241;80;21156;-65
2021/03/18 10:12:20;;;;;;;30.70;24.32;;;;;;;6.39;71.91;100733.98;2965146;80;21093;-64
2021/03/18 10:16:22;;;;;;;24.77;19.07;;;;;;;6.59;71.55;100733.30;2965283;80;22146;-64
2021/03/18 10:20:32;;;;;;;26.48;17.48;;;;;;;6.77;72.19;100725.23;2964698;80;21124;-66
2021/03/18 10:24:37;;;;;;;27.87;19.45;;;;;;;6.91;71.73;100726.60;2964735;80;21575;-65
2021/03/18 10:28:40;;;;;;;29.00;20.97;;;;;;;7.25;71.86;100723.72;2965038;80;21101;-64
2021/03/18 10:33:04;;;;;;;27.67;18.42;;;;;;;7.41;70.90;100727.58;2964940;80;21129;-66
2021/03/18 10:41:59;;;;;;;25.37;18.37;;;;;;;7.20;69.78;100716.05;3064573;77;22353;-65
2021/03/18 10:46:07;;;;;;;22.55;15.95;;;;;;;7.11;69.73;100708.69;3018765;78;21137;-65
2021/03/18 10:50:13;;;;;;;21.10;15.23;;;;;;;7.08;70.36;100702.27;2935906;80;21131;-65
2021/03/18 10:54:22;;;;;;;20.40;13.08;;;;;;;7.02;68.88;100700.83;2907464;81;22103;-63
2021/03/18 10:58:26;;;;;;;17.80;12.73;;;;;;;6.89;68.70;100700.72;2907187;81;21142;-62
2021/03/18 11:02:30;;;;;;;19.60;13.03;;;;;;;6.83;68.24;100695.78;2907378;81;21150;-65
2021/03/18 11:06:36;;;;;;;17.40;11.57;;;;;;;6.87;69.33;100692.00;2907061;81;21128;-63
2021/03/18 11:10:43;;;;;;;23.83;14.87;;;;;;;7.14;67.30;100692.13;2905741;81;21382;-65
2021/03/18 11:14:57;;;;;;;29.18;16.90;;;;;;;7.47;67.51;100682.23;2907099;81;21159;-64
2021/03/18 11:19:03;;;;;;;22.85;16.12;;;;;;;7.44;68.07;100677.09;2903574;81;21561;-63
2021/03/18 11:23:07;;;;;;;24.70;14.05;;;;;;;7.37;67.29;100671.82;2907237;81;21601;-65
2021/03/18 11:27:10;;;;;;;16.93;12.18;;;;;;;7.41;66.82;100671.55;2907321;81;21135;-66
2021/03/18 11:31:16;;;;;;;21.10;14.70;;;;;;;7.60;66.60;100666.42;2907081;81;21166;-66
2021/03/18 11:35:20;;;;;;;;;;;;;;;7.71;66.45;100661.77;2910013;81;22254;-67
2021/03/18 11:39:22;;;;;;;23.35;15.53;;;;;;;7.96;66.68;100656.20;2913841;81;20185;-65
2021/03/18 11:43:27;;;;;;;20.68;11.30;;;;;;;7.99;64.40;100648.91;2863938;83;21155;-65
2021/03/18 11:47:31;;;;;;;22.93;14.93;;;;;;;8.00;63.26;100637.82;2916069;81;21117;-65
2021/03/18 11:51:35;;;;;;;17.55;11.63;;;;;;;7.93;63.74;100637.86;2915556;81;21452;-65
2021/03/18 11:55:39;;;;;;;13.05;10.80;;;;;;;8.09;64.13;100633.26;2915794;81;21553;-65
2021/03/18 11:59:44;;;;;;;14.55;9.93;;;;;;;8.17;61.03;100621.29;2915333;81;21592;-65
2021/03/18 12:03:52;;;;;;;12.13;8.15;;;;;;;7.99;61.18;100610.50;2915925;81;21162;-66
2021/03/18 12:07:56;;;;;;;7.50;4.28;;;;;;;8.11;63.28;100611.94;2915833;81;21612;-68
2021/03/18 12:11:59;;;;;;;10.32;6.42;;;;;;;8.42;60.05;100604.59;2915915;81;21134;-66
2021/03/18 12:16:02;;;;;;;9.93;6.78;;;;;;;8.80;61.08;100596.30;2915910;81;21150;-66
2021/03/18 12:20:10;;;;;;;3.83;3.52;;;;;;;8.95;58.52;100591.27;2915706;81;21360;-66
2021/03/18 12:24:14;;;;;;;19.82;11.90;;;;;;;8.80;58.68;100575.09;2915734;81;21142;-66
2021/03/18 12:28:17;;;;;;;5.35;4.55;;;;;;;8.60;56.16;100572.02;2915592;81;21158;-66
2021/03/18 12:32:22;;;;;;;24.82;14.98;;;;;;;8.37;56.67;100568.28;2915367;81;22371;-65
2021/03/18 12:36:25;;;;;;;21.60;14.47;;;;;;;8.16;56.14;100562.16;2915813;81;21178;-66
2021/03/18 12:40:30;;;;;;;12.25;5.22;;;;;;;7.99;57.50;100560.62;2934316;80;21157;-66
2021/03/18 12:44:33;;;;;;;11.03;8.13;;;;;;;7.79;55.55;100556.17;2932037;81;21793;-67
2021/03/18 12:48:36;;;;;;;8.83;6.25;;;;;;;7.88;56.47;100549.42;2932191;79;21568;-67
2021/03/18 12:52:40;;;;;;;8.78;5.45;;;;;;;8.28;57.36;100538.78;2931854;81;21150;-67
2021/03/18 12:56:43;;;;;;;7.35;4.65;;;;;;;8.41;57.20;100547.23;2931920;81;21157;-68
2021/03/18 13:00:47;;;;;;;10.65;4.78;;;;;;;8.42;56.80;100539.64;2932690;81;21166;-66
2021/03/18 13:04:50;;;;;;;3.92;3.58;;;;;;;8.48;54.25;100527.78;2931966;81;21102;-66
2021/03/18 13:08:54;;;;;;;6.28;3.55;;;;;;;8.37;52.91;100521.89;2924509;81;21174;-66
2021/03/18 13:12:56;;;;;;;5.45;3.95;;;;;;;8.18;52.78;100510.36;2910877;81;21135;-66
2021/03/18 13:17:03;;;;;;;4.45;3.67;;;;;;;8.11;53.66;100499.33;2911172;81;21150;-67
2021/03/18 13:21:06;;;;;;;4.28;3.33;;;;;;;8.22;54.21;100494.62;2910824;81;21146;-66
2021/03/18 13:25:10;;;;;;;4.40;3.02;;;;;;;8.46;52.32;100492.08;2911393;81;21126;-67
2021/03/18 13:29:13;;;;;;;5.50;4.30;;;;;;;8.75;52.25;100487.05;2890867;81;21169;-67
2021/03/18 13:33:16;;;;;;;4.60;3.85;;;;;;;9.03;54.25;100477.95;2949922;80;21150;-67
2021/03/18 13:37:20;;;;;;;7.70;4.75;;;;;;;9.13;56.49;100488.75;2949863;80;21153;-65
2021/03/18 13:41:25;;;;;;;6.62;5.30;;;;;;;8.96;55.54;100476.71;2949603;80;21149;-66
2021/03/18 13:45:30;;;;;;;7.92;4.65;;;;;;;8.97;55.16;100479.23;2950084;80;21149;-68
2021/03/18 13:49:33;;;;;;;7.58;4.55;;;;;;;8.91;55.93;100479.69;2950013;79;21113;-65
2021/03/18 13:53:36;;;;;;;5.90;4.33;;;;;;;8.97;56.44;100472.60;2937013;80;21145;-64
2021/03/18 13:57:39;;;;;;;6.25;4.08;;;;;;;9.00;57.30;100465.74;2895332;81;21141;-63
2021/03/18 14:01:43;;;;;;;8.70;5.17;;;;;;;8.98;56.56;100459.70;2946645;80;21805;-65
2021/03/18 14:05:47;;;;;;;6.53;4.25;;;;;;;9.08;57.21;100449.77;2932658;81;21575;-66
2021/03/18 14:09:51;;;;;;;7.67;5.08;;;;;;;8.99;56.05;100445.48;2932484;81;21161;-62
2021/03/18 14:13:56;;;;;;;6.70;5.87;;;;;;;8.76;56.95;100450.27;2931469;81;21134;-63
2021/03/18 14:18:01;;;;;;;6.28;4.35;;;;;;;8.35;59.81;100451.74;2932609;81;21122;-63
2021/03/18 14:22:05;;;;;;;6.03;4.60;;;;;;;8.15;59.35;100444.70;2932995;81;21529;-62
2021/03/18 14:26:10;;;;;;;8.08;5.85;;;;;;;8.25;56.95;100446.23;2913618;80;21102;-64
2021/03/18 14:30:15;;;;;;;6.33;4.37;;;;;;;8.27;57.78;100443.49;2908207;81;21097;-64
2021/03/18 14:34:19;;;;;;;4.23;3.30;;;;;;;8.10;58.78;100440.20;2878594;81;21137;-62
2021/03/18 14:38:22;;;;;;;5.75;5.20;;;;;;;7.86;58.72;100434.78;2868734;83;21236;-66
2021/03/18 14:42:27;;;;;;;6.35;4.58;;;;;;;7.62;56.66;100439.94;2901057;81;21157;-63
2021/03/18 14:46:30;;;;;;;6.62;5.12;;;;;;;7.38;59.28;100439.30;2911627;81;21125;-65
2021/03/18 14:50:36;;;;;;;10.13;4.87;;;;;;;7.31;59.35;100435.38;2942747;79;21158;-64
2021/03/18 14:54:39;;;;;;;8.25;4.25;;;;;;;7.33;58.34;100426.36;2942895;80;21158;-64
2021/03/18 14:58:42;;;;;;;6.55;4.75;;;;;;;7.44;59.34;100423.00;2942746;80;21118;-63
2021/03/18 15:02:45;;;;;;;6.10;4.45;;;;;;;7.55;59.05;100419.63;2942527;80;21158;-64
2021/03/18 15:06:48;;;;;;;5.28;4.00;;;;;;;7.72;58.81;100419.84;2942913;80;21592;-64
2021/03/18 15:10:52;;;;;;;4.78;3.62;;;;;;;7.80;56.12;100414.86;2942833;80;21358;-62
2021/03/18 15:14:57;;;;;;;8.25;5.03;;;;;;;7.75;57.39;100413.47;2940617;80;21129;-62
2021/03/18 15:19:01;;;;;;;5.08;4.60;;;;;;;7.44;58.24;100409.77;2939242;80;21500;-62
2021/03/18 15:23:04;;;;;;;10.53;5.72;;;;;;;7.19;58.55;100411.89;2886954;81;21203;-64
2021/03/18 15:27:07;;;;;;;6.90;3.70;;;;;;;7.02;61.24;100412.98;2895562;81;21154;-63
2021/03/18 15:31:10;;;;;;;9.40;5.92;;;;;;;6.81;61.08;100407.67;2917962;81;21710;-62
2021/03/18 15:35:15;;;;;;;11.40;7.10;;;;;;;6.68;61.98;100406.28;2917412;81;21178;-65
2021/03/18 15:39:18;;;;;;;31.25;16.80;;;;;;;6.60;63.17;100409.04;2916938;81;21189;-63
2021/03/18 15:43:21;;;;;;;10.03;5.92;;;;;;;6.55;63.51;100400.08;2868405;83;21157;-66
2021/03/18 15:47:24;;;;;;;6.03;5.03;;;;;;;6.50;65.31;100399.52;2912916;81;21172;-61
2021/03/18 15:51:28;;;;;;;8.75;7.20;;;;;;;6.39;66.96;100407.64;2856614;83;21195;-66
2021/03/18 15:55:32;;;;;;;9.20;6.10;;;;;;;6.31;67.63;100391.42;2907108;80;21152;-62
2021/03/18 15:59:35;;;;;;;12.58;7.78;;;;;;;6.33;67.49;100398.78;2910600;81;21166;-65
2021/03/18 16:03:40;;;;;;;11.35;7.30;;;;;;;6.28;67.55;100386.30;2838330;83;21134;-63
2021/03/18 16:07:43;;;;;;;9.68;7.15;;;;;;;6.19;67.85;100392.17;2812311;83;21749;-62
2021/03/18 16:11:47;;;;;;;10.05;6.12;;;;;;;6.09;68.70;100388.80;2897727;81;21149;-71
2021/03/18 16:15:52;;;;;;;12.23;8.08;;;;;;;5.89;69.23;100387.33;2910728;81;21144;-69
2021/03/18 16:19:56;;;;;;;8.83;6.22;;;;;;;5.72;70.38;100388.36;2911950;81;21552;-66
2021/03/18 16:24:00;;;;;;;8.60;5.97;;;;;;;5.60;69.48;100383.80;2911436;81;21157;-66
2021/03/18 16:28:04;;;;;;;12.53;8.43;;;;;;;5.45;70.54;100392.99;2911846;81;21093;-70
2021/03/18 16:32:11;;;;;;;12.20;9.33;;;;;;;5.36;72.07;100389.59;2911727;81;21475;-69
2021/03/18 16:36:14;;;;;;;9.73;7.15;;;;;;;5.32;72.64;100389.39;2911606;81;21129;-69
2021/03/18 16:40:20;;;;;;;13.53;9.20;;;;;;;5.19;72.73;100386.14;2911455;81;21188;-69
2021/03/18 16:44:23;;;;;;;11.85;8.15;;;;;;;5.15;73.85;100376.71;2911730;81;21152;-66
2021/03/18 16:48:27;;;;;;;13.30;9.20;;;;;;;5.06;74.16;100375.45;2911957;81;21173;-66
2021/03/18 16:52:30;;;;;;;11.95;6.83;;;;;;;5.02;74.32;100375.70;2911557;81;21129;-67
2021/03/18 16:56:34;;;;;;;10.45;7.25;;;;;;;4.97;74.82;100375.51;2911611;81;21160;-63
2021/03/18 17:00:41;;;;;;;11.08;8.23;;;;;;;4.92;75.30;100373.61;2912021;81;21109;-64
2021/03/18 17:04:47;;;;;;;10.70;9.60;;;;;;;4.83;75.65;100372.34;2911762;81;21101;-66
2021/03/18 17:08:52;;;;;;;12.77;9.03;;;;;;;4.76;76.17;100376.24;2911934;81;21153;-64
2021/03/18 17:12:58;;;;;;;15.25;9.20;;;;;;;4.71;76.48;100375.17;2911526;81;21168;-65
2021/03/18 17:17:03;;;;;;;11.43;7.47;;;;;;;4.61;76.82;100372.69;2911382;81;21161;-68
2021/03/18 17:21:06;;;;;;;13.90;9.03;;;;;;;4.55;77.19;100365.97;2911357;81;21566;-64
2021/03/18 17:25:14;;;;;;;15.53;9.40;;;;;;;4.49;77.44;100369.41;2911461;81;21136;-64
2021/03/18 17:29:17;;;;;;;15.43;10.60;;;;;;;4.40;77.89;100366.80;2911553;81;21623;-65
2021/03/18 17:33:26;;;;;;;12.10;8.30;;;;;;;4.42;78.00;100366.25;2911526;81;21603;-65
2021/03/18 17:37:29;;;;;;;15.93;11.05;;;;;;;4.41;78.02;100365.87;2911526;81;21623;-65
2021/03/18 17:41:33;;;;;;;18.90;12.30;;;;;;;4.41;78.02;100370.69;2911465;80;21614;-65
2021/03/18 17:45:41;;;;;;;17.48;10.08;;;;;;;4.37;78.04;100369.16;2911531;81;21120;-66
2021/03/18 17:49:44;;;;;;;18.30;12.58;;;;;;;4.30;78.14;100369.09;2911639;80;21101;-65
2021/03/18 17:53:52;;;;;;;21.62;12.88;;;;;;;4.23;78.47;100370.37;2911692;81;21615;-63
2021/03/18 17:57:55;;;;;;;12.35;9.43;;;;;;;4.23;78.88;100369.05;2911597;81;21156;-67
2021/03/18 18:01:58;;;;;;;14.60;10.93;;;;;;;4.25;78.67;100363.23;2911734;81;21619;-64
2021/03/18 18:06:02;;;;;;;16.00;12.07;;;;;;;4.22;78.58;100362.92;2911493;81;21149;-64
2021/03/18 18:10:08;;;;;;;15.90;10.58;;;;;;;4.19;78.61;100358.31;2912173;81;21544;-66
2021/03/18 18:14:11;;;;;;;18.90;11.80;;;;;;;4.13;78.56;100366.06;2911895;81;21424;-64
2021/03/18 18:18:15;;;;;;;22.67;15.10;;;;;;;4.04;78.82;100367.41;2911657;81;21153;-67
2021/03/18 18:22:19;;;;;;;21.68;16.42;;;;;;;3.92;79.32;100364.09;2911541;81;21133;-67
2021/03/18 18:26:23;;;;;;;16.42;11.55;;;;;;;3.91;79.71;100367.66;2911238;81;21153;-64
2021/03/18 18:30:31;;;;;;;26.75;14.23;;;;;;;3.94;80.10;100370.16;2909568;81;21149;-67
2021/03/18 18:34:34;;;;;;;;;;;;;;;4.05;80.30;100365.16;2914023;81;21165;-67
2021/03/18 18:38:37;;;;;;;21.82;15.05;;;;;;;4.16;79.59;100365.06;2911296;81;20229;-67
2021/03/18 18:42:42;;;;;;;26.77;16.93;;;;;;;4.27;79.47;100368.81;2904077;80;21129;-66
2021/03/18 18:46:46;;;;;;;37.45;24.67;;;;;;;4.45;78.74;100366.11;2899800;81;21181;-65
2021/03/18 18:50:50;;;;;;;23.77;17.45;;;;;;;4.45;78.74;100366.11;2900157;80;21157;-64
2021/03/18 18:54:55;;;;;;;26.12;17.98;;;;;;;4.52;78.70;100365.27;2899447;82;21126;-65
2021/03/18 18:58:58;;;;;;;25.62;19.65;;;;;;;4.67;78.62;100359.16;2899900;82;21146;-63
2021/03/18 19:03:02;;;;;;;24.98;16.93;;;;;;;4.81;78.03;100364.13;2900202;82;21157;-65
2021/03/18 19:07:05;;;;;;;25.25;15.78;;;;;;;4.94;77.97;100363.83;2900198;82;22396;-63